sensor_id;sensor_type;location;lat;lon;timestamp;pressure;altitude;pressure_sealevel;temperature;humidity
39613;BME280;25303;48.896;13.342;2023-04-01T00:02:23;91466.50;;;5.77;81.62
39613;BME280;25303;48.896;13.342;2023-04-01T00:05:09;91467.47;;;5.68;82.00
39613;BME280;25303;48.896;13.342;2023-04-01T00:07:53;91466.03;;;5.74;81.75
39613;BME280;25303;48.896;13.342;2023-04-01T00:10:35;91464.75;;;5.70;81.63
39613;BME280;25303;48.896;13.342;2023-04-01T00:13:19;91463.97;;;5.69;81.83
39613;BME280;25303;48.896;13.342;2023-04-01T00:16:02;91475.59;;;5.72;81.79
39613;BME280;25303;48.896;13.342;2023-04-01T00:18:58;91469.53;;;5.73;81.57
39613;BME280;25303;48.896;13.342;2023-04-01T00:21:42;91468.59;;;5.74;81.84
39613;BME280;25303;48.896;13.342;2023-04-01T00:24:25;91475.28;;;5.75;81.69
39613;BME280;25303;48.896;13.342;2023-04-01T00:27:09;91465.06;;;5.75;81.84
39613;BME280;25303;48.896;13.342;2023-04-01T00:29:51;91467.00;;;5.73;81.82
39613;BME280;25303;48.896;13.342;2023-04-01T00:32:34;91468.91;;;5.71;81.87
39613;BME280;25303;48.896;13.342;2023-04-01T00:35:18;91461.72;;;5.66;81.94
39613;BME280;25303;48.896;13.342;2023-04-01T00:38:03;91463.16;;;5.69;81.76
39613;BME280;25303;48.896;13.342;2023-04-01T00:40:46;91459.97;;;5.67;81.99
39613;BME280;25303;48.896;13.342;2023-04-01T00:43:29;91454.72;;;5.60;82.30
39613;BME280;25303;48.896;13.342;2023-04-01T00:46:13;91458.06;;;5.60;82.08
39613;BME280;25303;48.896;13.342;2023-04-01T00:48:56;91456.16;;;5.62;82.03
39613;BME280;25303;48.896;13.342;2023-04-01T00:51:40;91459.19;;;5.58;82.23
39613;BME280;25303;48.896;13.342;2023-04-01T00:54:27;91462.53;;;5.58;82.21
39613;BME280;25303;48.896;13.342;2023-04-01T00:57:13;91458.06;;;5.60;82.21
39613;BME280;25303;48.896;13.342;2023-04-01T00:59:58;91459.81;;;5.60;82.25
39613;BME280;25303;48.896;13.342;2023-04-01T01:02:42;91457.13;;;5.61;82.05
39613;BME280;25303;48.896;13.342;2023-04-01T01:05:38;91450.88;;;5.56;82.26
39613;BME280;25303;48.896;13.342;2023-04-01T01:08:50;91451.69;;;5.56;82.29
39613;BME280;25303;48.896;13.342;2023-04-01T01:11:39;91453.44;;;5.56;82.07
39613;BME280;25303;48.896;13.342;2023-04-01T01:14:36;91449.78;;;5.50;82.22
39613;BME280;25303;48.896;13.342;2023-04-01T01:17:32;91452.31;;;5.50;82.18
39613;BME280;25303;48.896;13.342;2023-04-01T01:20:29;91449.13;;;5.48;82.35
39613;BME280;25303;48.896;13.342;2023-04-01T01:26:43;91453.13;;;5.51;82.17
39613;BME280;25303;48.896;13.342;2023-04-01T01:29:47;91460.63;;;5.52;82.03
39613;BME280;25303;48.896;13.342;2023-04-01T01:35:52;91459.97;;;5.50;82.12
39613;BME280;25303;48.896;13.342;2023-04-01T01:38:37;91459.84;;;5.52;82.02
39613;BME280;25303;48.896;13.342;2023-04-01T01:41:22;91459.03;;;5.51;81.95
39613;BME280;25303;48.896;13.342;2023-04-01T01:44:11;91463.81;;;5.54;81.85
39613;BME280;25303;48.896;13.342;2023-04-01T01:46:55;91464.78;;;5.53;81.93
39613;BME280;25303;48.896;13.342;2023-04-01T01:49:39;91471.66;;;5.53;81.75
39613;BME280;25303;48.896;13.342;2023-04-01T01:52:27;91467.16;;;5.55;81.66
39613;BME280;25303;48.896;13.342;2023-04-01T01:55:27;91465.41;;;5.55;81.80
39613;BME280;25303;48.896;13.342;2023-04-01T01:58:14;91461.25;;;5.54;81.81
39613;BME280;25303;48.896;13.342;2023-04-01T02:01:02;91460.47;;;5.54;81.69
39613;BME280;25303;48.896;13.342;2023-04-01T02:03:47;91455.50;;;5.52;81.87
39613;BME280;25303;48.896;13.342;2023-04-01T02:06:37;91458.25;;;5.51;81.81
39613;BME280;25303;48.896;13.342;2023-04-01T02:09:22;91459.97;;;5.50;81.71
39613;BME280;25303;48.896;13.342;2023-04-01T02:12:06;91470.84;;;5.52;81.77
39613;BME280;25303;48.896;13.342;2023-04-01T02:14:57;91469.41;;;5.50;81.75
39613;BME280;25303;48.896;13.342;2023-04-01T02:17:43;91466.03;;;5.49;81.82
39613;BME280;25303;48.896;13.342;2023-04-01T02:20:28;91480.25;;;5.52;81.81
39613;BME280;25303;48.896;13.342;2023-04-01T02:23:13;91473.25;;;5.54;81.69
39613;BME280;25303;48.896;13.342;2023-04-01T02:25:57;91474.97;;;5.53;81.81
39613;BME280;25303;48.896;13.342;2023-04-01T02:28:42;91471.78;;;5.51;81.70
39613;BME280;25303;48.896;13.342;2023-04-01T02:31:27;91471.78;;;5.51;81.72
39613;BME280;25303;48.896;13.342;2023-04-01T02:34:11;91472.59;;;5.52;81.79
39613;BME280;25303;48.896;13.342;2023-04-01T02:36:55;91475.94;;;5.52;81.62
39613;BME280;25303;48.896;13.342;2023-04-01T02:39:39;91473.88;;;5.47;81.76
39613;BME280;25303;48.896;13.342;2023-04-01T02:42:25;91471.16;;;5.49;81.86
39613;BME280;25303;48.896;13.342;2023-04-01T02:45:09;91472.28;;;5.46;81.84
39613;BME280;25303;48.896;13.342;2023-04-01T02:47:52;91471.31;;;5.47;82.01
39613;BME280;25303;48.896;13.342;2023-04-01T02:50:35;91467.94;;;5.47;81.82
39613;BME280;25303;48.896;13.342;2023-04-01T02:53:18;91469.72;;;5.46;82.05
39613;BME280;25303;48.896;13.342;2023-04-01T02:56:01;91477.56;;;5.45;81.81
39613;BME280;25303;48.896;13.342;2023-04-01T02:58:46;91480.25;;;5.43;81.95
39613;BME280;25303;48.896;13.342;2023-04-01T03:01:28;91480.72;;;5.47;81.92
39613;BME280;25303;48.896;13.342;2023-04-01T03:04:12;91480.88;;;5.45;81.80
39613;BME280;25303;48.896;13.342;2023-04-01T03:06:54;91478.34;;;5.45;81.85
39613;BME280;25303;48.896;13.342;2023-04-01T03:09:38;91479.16;;;5.46;81.91
39613;BME280;25303;48.896;13.342;2023-04-01T03:12:21;91486.16;;;5.44;81.92
39613;BME280;25303;48.896;13.342;2023-04-01T03:15:09;91482.00;;;5.43;81.90
39613;BME280;25303;48.896;13.342;2023-04-01T03:17:53;91485.53;;;5.42;81.91
39613;BME280;25303;48.896;13.342;2023-04-01T03:20:36;91488.38;;;5.39;81.87
39613;BME280;25303;48.896;13.342;2023-04-01T03:23:19;91481.38;;;5.41;81.74
39613;BME280;25303;48.896;13.342;2023-04-01T03:26:03;91491.91;;;5.38;81.85
39613;BME280;25303;48.896;13.342;2023-04-01T03:28:47;91487.44;;;5.40;81.98
39613;BME280;25303;48.896;13.342;2023-04-01T03:31:31;91484.06;;;5.39;81.89
39613;BME280;25303;48.896;13.342;2023-04-01T03:34:14;91497.94;;;5.37;82.17
39613;BME280;25303;48.896;13.342;2023-04-01T03:36:58;91498.91;;;5.36;82.13
39613;BME280;25303;48.896;13.342;2023-04-01T03:39:41;91499.84;;;5.35;82.11
39613;BME280;25303;48.896;13.342;2023-04-01T03:42:25;91497.00;;;5.29;82.34
39613;BME280;25303;48.896;13.342;2023-04-01T03:45:09;91502.59;;;5.33;82.16
39613;BME280;25303;48.896;13.342;2023-04-01T03:47:55;91496.66;;;5.32;82.37
39613;BME280;25303;48.896;13.342;2023-04-01T03:50:37;91492.69;;;5.30;82.44
39613;BME280;25303;48.896;13.342;2023-04-01T03:53:21;91497.47;;;5.33;82.26
39613;BME280;25303;48.896;13.342;2023-04-01T03:56:06;91494.75;;;5.26;82.51
39613;BME280;25303;48.896;13.342;2023-04-01T03:58:50;91500.81;;;5.25;82.58
39613;BME280;25303;48.896;13.342;2023-04-01T04:01:33;91508.47;;;5.25;82.68
39613;BME280;25303;48.896;13.342;2023-04-01T04:04:18;91504.97;;;5.26;82.68
39613;BME280;25303;48.896;13.342;2023-04-01T04:07:02;91508.97;;;5.21;82.64
39613;BME280;25303;48.896;13.342;2023-04-01T04:09:57;91506.06;;;5.24;82.70
39613;BME280;25303;48.896;13.342;2023-04-01T04:12:40;91508.63;;;5.24;82.48
39613;BME280;25303;48.896;13.342;2023-04-01T04:15:24;91509.56;;;5.23;82.61
39613;BME280;25303;48.896;13.342;2023-04-01T04:18:07;91513.38;;;5.10;82.80
39613;BME280;25303;48.896;13.342;2023-04-01T04:20:51;91507.97;;;5.13;82.73
39613;BME280;25303;48.896;13.342;2023-04-01T04:23:34;91520.56;;;5.15;82.73
39613;BME280;25303;48.896;13.342;2023-04-01T04:26:18;91510.88;;;5.19;82.72
39613;BME280;25303;48.896;13.342;2023-04-01T04:29:08;91509.09;;;5.19;82.71
39613;BME280;25303;48.896;13.342;2023-04-01T04:31:51;91513.25;;;5.20;82.74
39613;BME280;25303;48.896;13.342;2023-04-01T04:34:34;91519.31;;;5.19;82.94
39613;BME280;25303;48.896;13.342;2023-04-01T04:37:19;91521.72;;;5.21;82.91
39613;BME280;25303;48.896;13.342;2023-04-01T04:40:02;91524.88;;;5.14;82.98
39613;BME280;25303;48.896;13.342;2023-04-01T04:42:46;91537.97;;;5.20;82.94
39613;BME280;25303;48.896;13.342;2023-04-01T04:45:30;91536.22;;;5.20;82.81
39613;BME280;25303;48.896;13.342;2023-04-01T04:48:15;91536.50;;;5.17;82.86
39613;BME280;25303;48.896;13.342;2023-04-01T04:51:01;91541.47;;;5.19;82.85
39613;BME280;25303;48.896;13.342;2023-04-01T04:53:46;91538.75;;;5.20;82.85
39613;BME280;25303;48.896;13.342;2023-04-01T04:56:31;91532.22;;;5.17;82.95
39613;BME280;25303;48.896;13.342;2023-04-01T04:59:19;91529.50;;;5.19;82.76
39613;BME280;25303;48.896;13.342;2023-04-01T05:02:17;91535.41;;;5.20;82.80
39613;BME280;25303;48.896;13.342;2023-04-01T05:05:01;91538.13;;;5.18;83.22
39613;BME280;25303;48.896;13.342;2023-04-01T05:07:44;91544.81;;;5.19;83.10
39613;BME280;25303;48.896;13.342;2023-04-01T05:10:29;91544.34;;;5.15;83.01
39613;BME280;25303;48.896;13.342;2023-04-01T05:13:12;91542.75;;;5.14;83.00
39613;BME280;25303;48.896;13.342;2023-04-01T05:15:59;91546.56;;;5.10;83.16
39613;BME280;25303;48.896;13.342;2023-04-01T05:18:42;91538.25;;;5.08;83.19
39613;BME280;25303;48.896;13.342;2023-04-01T05:21:26;91554.19;;;5.10;83.22
39613;BME280;25303;48.896;13.342;2023-04-01T05:24:10;91555.16;;;5.09;83.24
39613;BME280;25303;48.896;13.342;2023-04-01T05:26:55;91559.31;;;5.10;83.05
39613;BME280;25303;48.896;13.342;2023-04-01T05:29:39;91562.66;;;5.11;83.11
39613;BME280;25303;48.896;13.342;2023-04-01T05:32:30;91556.28;;;5.07;83.32
39613;BME280;25303;48.896;13.342;2023-04-01T05:35:15;91547.50;;;5.01;83.42
39613;BME280;25303;48.896;13.342;2023-04-01T05:37:58;91554.50;;;5.07;83.29
39613;BME280;25303;48.896;13.342;2023-04-01T05:40:41;91559.59;;;5.07;83.13
39613;BME280;25303;48.896;13.342;2023-04-01T05:43:25;91548.44;;;5.08;83.00
39613;BME280;25303;48.896;13.342;2023-04-01T05:46:11;91558.81;;;5.07;83.16
39613;BME280;25303;48.896;13.342;2023-04-01T05:49:06;91560.13;;;5.11;83.02
39613;BME280;25303;48.896;13.342;2023-04-01T05:51:50;91561.22;;;5.08;83.22
39613;BME280;25303;48.896;13.342;2023-04-01T05:54:35;91556.41;;;5.05;83.50
39613;BME280;25303;48.896;13.342;2023-04-01T05:57:18;91562.97;;;5.08;83.27
39613;BME280;25303;48.896;13.342;2023-04-01T06:00:03;91572.22;;;5.09;83.10
39613;BME280;25303;48.896;13.342;2023-04-01T06:02:52;91562.16;;;5.07;83.31
39613;BME280;25303;48.896;13.342;2023-04-01T06:05:39;91574.28;;;5.05;83.31
39613;BME280;25303;48.896;13.342;2023-04-01T06:08:24;91566.94;;;5.02;83.52
39613;BME280;25303;48.896;13.342;2023-04-01T06:11:20;91568.84;;;5.00;83.38
39613;BME280;25303;48.896;13.342;2023-04-01T06:14:19;91572.50;;;4.97;83.41
39613;BME280;25303;48.896;13.342;2023-04-01T06:17:24;91576.63;;;4.98;83.52
39613;BME280;25303;48.896;13.342;2023-04-01T06:20:14;91581.72;;;4.90;83.68
39613;BME280;25303;48.896;13.342;2023-04-01T06:23:16;91585.56;;;4.94;83.49
39613;BME280;25303;48.896;13.342;2023-04-01T06:26:19;91577.94;;;4.94;83.45
39613;BME280;25303;48.896;13.342;2023-04-01T06:32:46;91579.53;;;4.95;83.32
39613;BME280;25303;48.896;13.342;2023-04-01T06:35:54;91585.09;;;4.99;83.34
39613;BME280;25303;48.896;13.342;2023-04-01T06:38:53;91585.25;;;4.97;83.58
39613;BME280;25303;48.896;13.342;2023-04-01T06:42:19;91579.34;;;4.97;83.86
39613;BME280;25303;48.896;13.342;2023-04-01T06:45:17;91578.41;;;4.98;83.66
39613;BME280;25303;48.896;13.342;2023-04-01T06:48:42;91584.28;;;4.98;84.02
39613;BME280;25303;48.896;13.342;2023-04-01T06:51:54;91582.69;;;4.97;83.93
39613;BME280;25303;48.896;13.342;2023-04-01T06:55:02;91577.81;;;5.04;83.95
39613;BME280;25303;48.896;13.342;2023-04-01T06:58:16;91578.41;;;5.06;84.19
39613;BME280;25303;48.896;13.342;2023-04-01T07:01:03;91582.44;;;5.09;83.96
39613;BME280;25303;48.896;13.342;2023-04-01T07:03:53;91583.84;;;5.11;84.02
39613;BME280;25303;48.896;13.342;2023-04-01T07:06:42;91579.41;;;5.13;83.92
39613;BME280;25303;48.896;13.342;2023-04-01T07:09:31;91575.91;;;5.14;84.20
39613;BME280;25303;48.896;13.342;2023-04-01T07:12:41;91573.69;;;5.20;83.99
39613;BME280;25303;48.896;13.342;2023-04-01T07:15:51;91579.41;;;5.22;84.45
39613;BME280;25303;48.896;13.342;2023-04-01T07:18:43;91571.31;;;5.26;84.22
39613;BME280;25303;48.896;13.342;2023-04-01T07:21:34;91582.94;;;5.29;84.41
39613;BME280;25303;48.896;13.342;2023-04-01T07:24:32;91582.97;;;5.37;84.22
39613;BME280;25303;48.896;13.342;2023-04-01T07:27:19;91588.38;;;5.34;84.02
39613;BME280;25303;48.896;13.342;2023-04-01T07:30:04;91582.47;;;5.25;83.80
39613;BME280;25303;48.896;13.342;2023-04-01T07:32:50;91585.34;;;5.30;83.53
39613;BME280;25303;48.896;13.342;2023-04-01T07:35:38;91601.41;;;5.23;83.75
39613;BME280;25303;48.896;13.342;2023-04-01T07:38:32;91595.72;;;5.29;83.65
39613;BME280;25303;48.896;13.342;2023-04-01T07:41:23;91593.81;;;5.31;83.68
39613;BME280;25303;48.896;13.342;2023-04-01T07:44:14;91600.19;;;5.35;83.62
39613;BME280;25303;48.896;13.342;2023-04-01T07:47:19;91599.38;;;5.35;83.63
39613;BME280;25303;48.896;13.342;2023-04-01T07:50:12;91603.22;;;5.39;83.61
39613;BME280;25303;48.896;13.342;2023-04-01T07:53:05;91604.34;;;5.36;83.38
39613;BME280;25303;48.896;13.342;2023-04-01T07:55:54;91612.63;;;5.38;83.53
39613;BME280;25303;48.896;13.342;2023-04-01T07:58:50;91608.97;;;5.41;83.73
39613;BME280;25303;48.896;13.342;2023-04-01T08:02:08;91616.63;;;5.41;83.64
39613;BME280;25303;48.896;13.342;2023-04-01T08:05:00;91612.78;;;5.37;83.77
39613;BME280;25303;48.896;13.342;2023-04-01T08:07:50;91613.59;;;5.37;83.36
39613;BME280;25303;48.896;13.342;2023-04-01T08:11:05;91606.44;;;5.41;83.58
39613;BME280;25303;48.896;13.342;2023-04-01T08:14:14;91614.25;;;5.47;83.48
39613;BME280;25303;48.896;13.342;2023-04-01T08:17:46;91614.72;;;5.51;83.44
39613;BME280;25303;48.896;13.342;2023-04-01T08:20:37;91615.38;;;5.53;83.67
39613;BME280;25303;48.896;13.342;2023-04-01T08:23:24;91617.94;;;5.53;83.31
39613;BME280;25303;48.896;13.342;2023-04-01T08:26:12;91614.13;;;5.57;83.27
39613;BME280;25303;48.896;13.342;2023-04-01T08:29:02;91613.81;;;5.60;83.63
39613;BME280;25303;48.896;13.342;2023-04-01T08:31:51;91612.50;;;5.65;83.54
39613;BME280;25303;48.896;13.342;2023-04-01T08:34:39;91607.56;;;5.71;83.73
39613;BME280;25303;48.896;13.342;2023-04-01T08:37:32;91616.53;;;5.75;83.86
39613;BME280;25303;48.896;13.342;2023-04-01T08:40:51;91609.97;;;5.81;83.89
39613;BME280;25303;48.896;13.342;2023-04-01T08:44:12;91608.72;;;5.85;83.61
39613;BME280;25303;48.896;13.342;2023-04-01T08:47:29;91605.84;;;5.88;83.42
39613;BME280;25303;48.896;13.342;2023-04-01T08:50:36;91606.00;;;5.95;83.58
39613;BME280;25303;48.896;13.342;2023-04-01T08:53:58;91597.41;;;6.04;83.76
39613;BME280;25303;48.896;13.342;2023-04-01T08:56:52;91607.94;;;6.18;84.03
39613;BME280;25303;48.896;13.342;2023-04-01T08:59:50;91609.84;;;6.24;83.80
39613;BME280;25303;48.896;13.342;2023-04-01T09:03:36;91609.06;;;6.23;83.45
39613;BME280;25303;48.896;13.342;2023-04-01T09:06:39;91610.00;;;6.31;83.53
39613;BME280;25303;48.896;13.342;2023-04-01T09:13:12;91611.91;;;6.45;83.79
39613;BME280;25303;48.896;13.342;2023-04-01T09:16:23;91621.78;;;6.48;83.09
39613;BME280;25303;48.896;13.342;2023-04-01T09:19:24;91607.09;;;6.50;82.84
39613;BME280;25303;48.896;13.342;2023-04-01T09:22:36;91611.25;;;6.51;82.73
39613;BME280;25303;48.896;13.342;2023-04-01T09:25:38;91616.22;;;6.53;82.87
39613;BME280;25303;48.896;13.342;2023-04-01T09:28:36;91613.97;;;6.50;82.34
39613;BME280;25303;48.896;13.342;2023-04-01T09:31:49;91613.81;;;6.51;82.60
39613;BME280;25303;48.896;13.342;2023-04-01T09:35:03;91612.66;;;6.54;82.86
39613;BME280;25303;48.896;13.342;2023-04-01T09:38:00;91616.38;;;6.51;82.33
39613;BME280;25303;48.896;13.342;2023-04-01T09:40:55;91617.78;;;6.54;82.23
39613;BME280;25303;48.896;13.342;2023-04-01T09:44:00;91612.34;;;6.57;82.46
39613;BME280;25303;48.896;13.342;2023-04-01T09:47:01;91611.88;;;6.62;82.77
39613;BME280;25303;48.896;13.342;2023-04-01T09:50:14;91615.53;;;6.67;82.58
39613;BME280;25303;48.896;13.342;2023-04-01T09:53:11;91618.69;;;6.78;83.05
39613;BME280;25303;48.896;13.342;2023-04-01T10:02:57;91620.38;;;7.10;82.47
39613;BME280;25303;48.896;13.342;2023-04-01T10:06:11;91616.34;;;7.16;82.48
39613;BME280;25303;48.896;13.342;2023-04-01T10:09:48;91614.25;;;7.20;82.53
39613;BME280;25303;48.896;13.342;2023-04-01T10:13:03;91606.22;;;7.23;81.53
39613;BME280;25303;48.896;13.342;2023-04-01T10:19:42;91604.19;;;7.18;80.85
39613;BME280;25303;48.896;13.342;2023-04-01T10:22:50;91609.63;;;7.15;80.58
39613;BME280;25303;48.896;13.342;2023-04-01T10:26:04;91601.19;;;7.06;80.24
39613;BME280;25303;48.896;13.342;2023-04-01T10:29:14;91601.63;;;7.18;80.65
39613;BME280;25303;48.896;13.342;2023-04-01T10:35:45;91597.66;;;7.39;80.51
39613;BME280;25303;48.896;13.342;2023-04-01T10:39:19;91596.03;;;7.46;80.20
39613;BME280;25303;48.896;13.342;2023-04-01T10:49:32;91597.44;;;7.49;78.59
39613;BME280;25303;48.896;13.342;2023-04-01T10:56:43;91597.19;;;7.35;79.33
39613;BME280;25303;48.896;13.342;2023-04-01T11:00:10;91593.00;;;7.42;79.97
39613;BME280;25303;48.896;13.342;2023-04-01T11:07:50;91574.88;;;8.14;81.00
39613;BME280;25303;48.896;13.342;2023-04-01T11:11:20;91576.72;;;8.43;80.40
39613;BME280;25303;48.896;13.342;2023-04-01T11:14:47;91574.03;;;8.60;78.74
39613;BME280;25303;48.896;13.342;2023-04-01T11:21:32;91564.88;;;8.42;77.64
39613;BME280;25303;48.896;13.342;2023-04-01T11:24:58;91572.91;;;8.39;78.74
39613;BME280;25303;48.896;13.342;2023-04-01T11:28:09;91576.00;;;8.34;77.85
39613;BME280;25303;48.896;13.342;2023-04-01T11:31:11;91573.69;;;8.25;77.76
39613;BME280;25303;48.896;13.342;2023-04-01T11:34:07;91573.84;;;8.23;78.16
39613;BME280;25303;48.896;13.342;2023-04-01T11:37:02;91581.25;;;8.18;77.92
39613;BME280;25303;48.896;13.342;2023-04-01T11:40:02;91585.03;;;8.07;77.44
39613;BME280;25303;48.896;13.342;2023-04-01T11:43:11;91580.97;;;7.98;77.74
39613;BME280;25303;48.896;13.342;2023-04-01T11:46:39;91578.91;;;7.93;78.38
39613;BME280;25303;48.896;13.342;2023-04-01T11:49:36;91582.69;;;7.82;78.06
39613;BME280;25303;48.896;13.342;2023-04-01T11:52:47;91577.94;;;7.71;77.77
39613;BME280;25303;48.896;13.342;2023-04-01T11:55:44;91582.31;;;7.62;77.48
39613;BME280;25303;48.896;13.342;2023-04-01T12:01:50;91584.75;;;7.55;78.86
39613;BME280;25303;48.896;13.342;2023-04-01T12:04:54;91590.41;;;7.51;78.88
39613;BME280;25303;48.896;13.342;2023-04-01T12:07:55;91589.88;;;7.55;79.50
39613;BME280;25303;48.896;13.342;2023-04-01T12:10:48;91585.06;;;7.60;79.29
39613;BME280;25303;48.896;13.342;2023-04-01T12:13:40;91589.41;;;7.60;79.27
39613;BME280;25303;48.896;13.342;2023-04-01T12:16:47;91585.06;;;7.60;79.30
39613;BME280;25303;48.896;13.342;2023-04-01T12:19:40;91582.59;;;7.67;79.51
39613;BME280;25303;48.896;13.342;2023-04-01T12:22:35;91585.63;;;7.71;79.83
39613;BME280;25303;48.896;13.342;2023-04-01T12:25:37;91581.59;;;7.77;80.36
39613;BME280;25303;48.896;13.342;2023-04-01T12:28:32;91591.16;;;7.83;80.29
39613;BME280;25303;48.896;13.342;2023-04-01T12:31:30;91584.75;;;7.79;79.56
39613;BME280;25303;48.896;13.342;2023-04-01T12:34:44;91590.13;;;7.69;79.29
39613;BME280;25303;48.896;13.342;2023-04-01T12:37:39;91584.66;;;7.72;79.18
39613;BME280;25303;48.896;13.342;2023-04-01T12:40:38;91577.34;;;7.69;79.10
39613;BME280;25303;48.896;13.342;2023-04-01T12:43:48;91581.09;;;7.58;78.76
39613;BME280;25303;48.896;13.342;2023-04-01T12:46:47;91581.94;;;7.50;78.71
39613;BME280;25303;48.896;13.342;2023-04-01T12:49:51;91575.88;;;7.43;78.72
39613;BME280;25303;48.896;13.342;2023-04-01T12:52:48;91577.88;;;7.33;78.87
39613;BME280;25303;48.896;13.342;2023-04-01T12:55:41;91580.44;;;7.33;79.18
39613;BME280;25303;48.896;13.342;2023-04-01T13:02:03;91583.00;;;7.33;79.63
39613;BME280;25303;48.896;13.342;2023-04-01T13:05:15;91573.03;;;7.38;79.84
39613;BME280;25303;48.896;13.342;2023-04-01T13:08:13;91571.91;;;7.40;79.46
39613;BME280;25303;48.896;13.342;2023-04-01T13:11:09;91571.22;;;7.47;79.73
39613;BME280;25303;48.896;13.342;2023-04-01T13:17:13;91566.47;;;7.35;79.47
39613;BME280;25303;48.896;13.342;2023-04-01T13:20:05;91566.59;;;7.42;79.70
39613;BME280;25303;48.896;13.342;2023-04-01T13:23:01;91576.84;;;7.42;79.61
39613;BME280;25303;48.896;13.342;2023-04-01T13:25:53;91576.50;;;7.45;80.17
39613;BME280;25303;48.896;13.342;2023-04-01T13:28:56;91567.13;;;7.37;80.01
39613;BME280;25303;48.896;13.342;2023-04-01T13:31:51;91567.13;;;7.37;79.82
39613;BME280;25303;48.896;13.342;2023-04-01T13:34:44;91573.06;;;7.29;79.78
39613;BME280;25303;48.896;13.342;2023-04-01T13:37:41;91571.19;;;7.23;80.09
39613;BME280;25303;48.896;13.342;2023-04-01T13:40:43;91577.84;;;7.01;80.39
39613;BME280;25303;48.896;13.342;2023-04-01T13:43:47;91593.44;;;6.83;80.41
39613;BME280;25303;48.896;13.342;2023-04-01T13:46:43;91581.75;;;6.80;79.86
39613;BME280;25303;48.896;13.342;2023-04-01T13:49:40;91586.09;;;6.72;80.04
39613;BME280;25303;48.896;13.342;2023-04-01T13:52:40;91585.94;;;6.73;80.56
39613;BME280;25303;48.896;13.342;2023-04-01T13:55:35;91603.16;;;6.88;81.38
39613;BME280;25303;48.896;13.342;2023-04-01T13:58:57;91605.03;;;7.02;81.57
39613;BME280;25303;48.896;13.342;2023-04-01T14:01:49;91601.94;;;7.15;81.11
39613;BME280;25303;48.896;13.342;2023-04-01T14:04:47;91610.59;;;7.06;80.63
39613;BME280;25303;48.896;13.342;2023-04-01T14:07:45;91604.53;;;7.07;80.96
39613;BME280;25303;48.896;13.342;2023-04-01T14:10:36;91613.16;;;7.14;80.44
39613;BME280;25303;48.896;13.342;2023-04-01T14:13:29;91620.19;;;7.12;80.60
39613;BME280;25303;48.896;13.342;2023-04-01T14:16:44;91617.31;;;7.15;80.05
39613;BME280;25303;48.896;13.342;2023-04-01T14:19:48;91612.66;;;7.19;80.09
39613;BME280;25303;48.896;13.342;2023-04-01T14:22:42;91607.66;;;7.25;80.41
39613;BME280;25303;48.896;13.342;2023-04-01T14:25:41;91605.41;;;7.22;79.56
39613;BME280;25303;48.896;13.342;2023-04-01T14:28:37;91608.91;;;7.29;79.46
39613;BME280;25303;48.896;13.342;2023-04-01T14:31:48;91619.94;;;7.30;79.36
39613;BME280;25303;48.896;13.342;2023-04-01T14:34:47;91623.19;;;7.24;79.10
39613;BME280;25303;48.896;13.342;2023-04-01T14:37:53;91621.66;;;7.06;79.12
39613;BME280;25303;48.896;13.342;2023-04-01T14:40:55;91630.31;;;6.97;79.24
39613;BME280;25303;48.896;13.342;2023-04-01T14:43:54;91620.75;;;6.91;79.30
39613;BME280;25303;48.896;13.342;2023-04-01T14:46:55;91623.13;;;6.92;79.59
39613;BME280;25303;48.896;13.342;2023-04-01T14:49:46;91624.72;;;6.93;79.79
39613;BME280;25303;48.896;13.342;2023-04-01T14:52:32;91618.69;;;6.86;79.90
39613;BME280;25303;48.896;13.342;2023-04-01T14:55:28;91627.47;;;6.92;79.78
39613;BME280;25303;48.896;13.342;2023-04-01T14:58:16;91629.84;;;6.93;79.97
39613;BME280;25303;48.896;13.342;2023-04-01T15:01:11;91624.09;;;6.91;79.98
39613;BME280;25303;48.896;13.342;2023-04-01T15:04:07;91631.63;;;6.84;80.06
39613;BME280;25303;48.896;13.342;2023-04-01T15:07:10;91624.66;;;6.62;79.84
39613;BME280;25303;48.896;13.342;2023-04-01T15:10:04;91628.78;;;6.63;79.90
39613;BME280;25303;48.896;13.342;2023-04-01T15:12:58;91629.44;;;6.65;80.08
39613;BME280;25303;48.896;13.342;2023-04-01T15:15:59;91617.00;;;6.62;80.31
39613;BME280;25303;48.896;13.342;2023-04-01T15:18:50;91621.34;;;6.53;80.36
39613;BME280;25303;48.896;13.342;2023-04-01T15:21:48;91625.47;;;6.46;80.39
39613;BME280;25303;48.896;13.342;2023-04-01T15:24:43;91629.47;;;6.48;80.61
39613;BME280;25303;48.896;13.342;2023-04-01T15:27:34;91627.88;;;6.47;80.77
39613;BME280;25303;48.896;13.342;2023-04-01T15:30:33;91623.41;;;6.41;81.00
39613;BME280;25303;48.896;13.342;2023-04-01T15:33:28;91628.69;;;6.39;81.11
39613;BME280;25303;48.896;13.342;2023-04-01T15:36:27;91630.28;;;6.41;81.08
39613;BME280;25303;48.896;13.342;2023-04-01T15:39:15;91631.88;;;6.42;81.13
39613;BME280;25303;48.896;13.342;2023-04-01T15:42:21;91636.53;;;6.38;81.41
39613;BME280;25303;48.896;13.342;2023-04-01T15:45:16;91634.28;;;6.35;81.55
39613;BME280;25303;48.896;13.342;2023-04-01T15:48:11;91637.47;;;6.37;81.18
39613;BME280;25303;48.896;13.342;2023-04-01T15:51:06;91637.31;;;6.38;81.27
39613;BME280;25303;48.896;13.342;2023-04-01T15:54:00;91636.19;;;6.41;81.39
39613;BME280;25303;48.896;13.342;2023-04-01T15:57:06;91639.06;;;6.38;81.66
39613;BME280;25303;48.896;13.342;2023-04-01T16:00:11;91639.06;;;6.38;81.57
39613;BME280;25303;48.896;13.342;2023-04-01T16:03:17;91645.16;;;6.37;81.54
39613;BME280;25303;48.896;13.342;2023-04-01T16:06:14;91640.81;;;6.37;81.59
39613;BME280;25303;48.896;13.342;2023-04-01T16:09:17;91645.94;;;6.37;81.71
39613;BME280;25303;48.896;13.342;2023-04-01T16:12:07;91643.53;;;6.36;81.77
39613;BME280;25303;48.896;13.342;2023-04-01T16:15:06;91636.69;;;6.36;81.83
39613;BME280;25303;48.896;13.342;2023-04-01T16:18:13;91635.88;;;6.36;81.69
39613;BME280;25303;48.896;13.342;2023-04-01T16:21:03;91643.72;;;6.34;81.79
39613;BME280;25303;48.896;13.342;2023-04-01T16:23:49;91642.75;;;6.35;81.72